Time;durP1;ratioP1;P1;durP2;ratioP2;P2;SDS_P1;SDS_P2;PMS_P1;PMS_P2;Temp;Humidity;BMP_temperature;BMP_pressure;BME280_temperature;BME280_humidity;BME280_pressure;Samples;Min_cycle;Max_cycle;Signal;HPM_P1;HPM_P2
2024/03/15 00:00:13;;;;;;;40.08;26.40;;;9.50;99.90;;;;;;5095067;28;20024;-81
2024/03/15 00:02:39;;;;;;;39.90;22.65;;;9.50;99.90;;;;;;5092381;28;20132;-81
2024/03/15 00:05:05;;;;;;;44.22;30.00;;;9.50;99.90;;;;;;5092061;28;20040;-80
2024/03/15 00:07:31;;;;;;;44.58;28.75;;;9.60;99.90;;;;;;5094944;28;20086;-80
2024/03/15 00:09:57;;;;;;;39.92;23.80;;;9.60;99.90;;;;;;5090673;28;20409;-81
2024/03/15 00:12:23;;;;;;;42.58;23.65;;;9.50;99.90;;;;;;5090553;28;20038;-80
2024/03/15 00:14:49;;;;;;;45.05;26.38;;;9.50;99.90;;;;;;5096092;28;20040;-81
2024/03/15 00:17:15;;;;;;;39.78;22.48;;;9.50;99.90;;;;;;5094103;28;20136;-80
2024/03/15 00:19:41;;;;;;;40.17;26.83;;;9.40;99.90;;;;;;5095718;28;20046;-80
2024/03/15 00:22:07;;;;;;;41.10;25.50;;;9.40;99.90;;;;;;5097472;28;20704;-81
2024/03/15 00:24:36;;;;;;;43.58;24.65;;;9.40;99.90;;;;;;5095208;28;20561;-80
2024/03/15 00:27:02;;;;;;;46.55;29.48;;;9.40;99.90;;;;;;5093604;28;20071;-81
2024/03/15 00:29:28;;;;;;;51.30;28.48;;;9.40;99.90;;;;;;5096215;28;20028;-81
2024/03/15 00:31:57;;;;;;;42.15;23.38;;;9.50;99.90;;;;;;5096286;28;20034;-80
2024/03/15 00:34:24;;;;;;;42.97;24.95;;;9.50;99.90;;;;;;5096508;28;20035;-80
2024/03/15 00:36:50;;;;;;;46.80;27.30;;;9.50;99.90;;;;;;5096048;28;20038;-80
2024/03/15 00:39:15;;;;;;;43.97;27.08;;;9.50;99.90;;;;;;5094612;28;20028;-80
2024/03/15 00:41:42;;;;;;;46.58;25.60;;;9.50;99.90;;;;;;5094370;28;20035;-80
2024/03/15 00:44:08;;;;;;;48.13;29.92;;;9.30;99.90;;;;;;5097552;28;20118;-80
2024/03/15 00:46:33;;;;;;;45.63;26.90;;;9.30;99.90;;;;;;5095704;28;20034;-81
2024/03/15 00:48:59;;;;;;;50.90;28.52;;;9.30;99.90;;;;;;5095597;28;20122;-80
2024/03/15 00:51:25;;;;;;;45.55;29.20;;;9.30;99.90;;;;;;5096362;28;20513;-81
2024/03/15 00:53:51;;;;;;;58.33;30.85;;;9.20;99.90;;;;;;5095534;28;20023;-83
2024/03/15 00:56:17;;;;;;;46.92;28.73;;;9.30;99.90;;;;;;5095830;28;20080;-83
2024/03/15 00:58:43;;;;;;;53.55;32.13;;;9.20;99.90;;;;;;5097185;28;20055;-83
2024/03/15 01:01:10;;;;;;;53.17;32.50;;;9.00;99.90;;;;;;5095630;28;20035;-82
2024/03/15 01:03:36;;;;;;;51.47;30.73;;;9.00;99.90;;;;;;5095491;28;20066;-82
2024/03/15 01:06:02;;;;;;;51.38;34.30;;;9.00;99.90;;;;;;5096294;28;20456;-82
2024/03/15 01:08:28;;;;;;;52.35;32.88;;;9.00;99.90;;;;;;5093254;28;20393;-82
2024/03/15 01:10:54;;;;;;;51.03;30.80;;;9.10;99.90;;;;;;5093906;28;20028;-82
2024/03/15 01:13:19;;;;;;;49.60;29.92;;;9.10;99.90;;;;;;5093909;28;20070;-82
2024/03/15 01:15:46;;;;;;;48.42;29.48;;;9.20;99.90;;;;;;5095570;28;20028;-82
2024/03/15 01:18:12;;;;;;;47.30;28.73;;;9.10;99.90;;;;;;5095198;28;20083;-83
2024/03/15 01:20:39;;;;;;;49.30;27.75;;;9.20;99.90;;;;;;5096317;27;20039;-82
2024/03/15 01:23:05;;;;;;;51.20;28.80;;;9.50;99.90;;;;;;5094636;28;20855;-83
2024/03/15 01:25:31;;;;;;;51.30;27.92;;;9.30;99.90;;;;;;5095969;28;20074;-82
2024/03/15 01:27:57;;;;;;;49.03;31.30;;;9.20;99.90;;;;;;5094657;28;20138;-82
2024/03/15 01:30:23;;;;;;;57.75;32.55;;;8.90;99.90;;;;;;5094421;28;20062;-83
2024/03/15 01:32:49;;;;;;;50.63;29.40;;;9.00;99.90;;;;;;5095765;28;20057;-83
2024/03/15 01:35:16;;;;;;;53.83;31.15;;;9.00;99.90;;;;;;5095316;28;20055;-82
2024/03/15 01:37:43;;;;;;;54.22;32.97;;;9.10;99.90;;;;;;5094591;28;20024;-83
2024/03/15 01:40:10;;;;;;;58.80;31.20;;;9.10;99.90;;;;;;5094965;27;20066;-82
2024/03/15 01:42:36;;;;;;;57.83;32.08;;;9.30;99.90;;;;;;5094712;28;20880;-82
2024/03/15 01:45:03;;;;;;;60.63;34.08;;;9.30;99.90;;;;;;5093641;28;20032;-82
2024/03/15 01:47:31;;;;;;;60.90;34.08;;;9.20;99.90;;;;;;5094170;28;20507;-83
2024/03/15 01:49:57;;;;;;;55.70;30.75;;;9.20;99.90;;;;;;5090270;28;20035;-83
2024/03/15 01:52:24;;;;;;;53.03;32.95;;;9.20;99.90;;;;;;5091584;28;20106;-83
2024/03/15 01:54:51;;;;;;;57.17;33.20;;;9.10;99.90;;;;;;5090463;28;20027;-83
2024/03/15 01:57:18;;;;;;;56.42;33.17;;;9.10;99.90;;;;;;5092506;28;20401;-82
2024/03/15 01:59:44;;;;;;;48.83;30.40;;;9.10;99.90;;;;;;5092063;28;20299;-80
2024/03/15 02:02:10;;;;;;;52.33;31.60;;;9.30;99.90;;;;;;5091152;28;20177;-79
2024/03/15 02:04:36;;;;;;;50.50;27.90;;;9.30;99.90;;;;;;5091911;28;20035;-80
2024/03/15 02:07:03;;;;;;;48.72;27.80;;;9.40;99.90;;;;;;5091479;28;20042;-80
2024/03/15 02:09:30;;;;;;;46.40;26.95;;;9.30;99.90;;;;;;5091312;28;20058;-80
2024/03/15 02:11:56;;;;;;;49.42;28.15;;;9.20;99.90;;;;;;5090995;28;20485;-80
2024/03/15 02:14:22;;;;;;;59.53;33.70;;;9.10;99.90;;;;;;5093550;28;21366;-80
2024/03/15 02:16:48;;;;;;;54.65;32.97;;;9.00;99.90;;;;;;5094565;28;20138;-83
2024/03/15 02:19:14;;;;;;;56.03;31.42;;;8.80;99.90;;;;;;5093576;28;20118;-83
2024/03/15 02:21:40;;;;;;;51.03;30.23;;;8.80;99.90;;;;;;5094290;28;20039;-83
2024/03/15 02:24:06;;;;;;;54.47;32.28;;;8.60;99.90;;;;;;5093811;28;20473;-83
2024/03/15 02:26:33;;;;;;;55.45;31.60;;;8.50;99.90;;;;;;5093380;28;20042;-83
2024/03/15 02:28:59;;;;;;;56.35;33.47;;;8.50;99.90;;;;;;5095398;28;20032;-82
2024/03/15 02:31:25;;;;;;;54.95;31.38;;;8.50;99.90;;;;;;5093549;28;20039;-83
2024/03/15 02:33:51;;;;;;;53.17;30.15;;;8.50;99.90;;;;;;5095805;28;20106;-83
2024/03/15 02:36:16;;;;;;;53.47;31.15;;;8.60;99.90;;;;;;5093712;28;20099;-82
2024/03/15 02:38:42;;;;;;;53.10;26.92;;;8.70;99.90;;;;;;5092730;28;20019;-83
2024/03/15 02:41:13;;;;;;;56.20;32.50;;;8.80;99.90;;;;;;5094637;28;20050;-83
2024/03/15 02:43:40;;;;;;;52.00;29.85;;;8.70;99.90;;;;;;5094574;28;20023;-83
2024/03/15 02:46:06;;;;;;;54.97;32.53;;;8.70;99.90;;;;;;5094146;28;20035;-83
2024/03/15 02:48:40;;;;;;;54.40;32.75;;;8.50;99.90;;;;;;5093359;28;20443;-83
2024/03/15 02:51:07;;;;;;;54.95;34.30;;;8.50;99.90;;;;;;5093901;28;21039;-82
2024/03/15 02:53:33;;;;;;;56.67;35.63;;;8.40;99.90;;;;;;5095399;28;20052;-82
2024/03/15 02:56:02;;;;;;;58.15;32.10;;;8.40;99.90;;;;;;5093064;28;20146;-82
2024/03/15 02:58:28;;;;;;;58.92;30.45;;;8.50;99.90;;;;;;5093358;28;20046;-83
2024/03/15 03:00:54;;;;;;;58.95;31.45;;;8.60;99.90;;;;;;5091733;28;20486;-83
2024/03/15 03:03:20;;;;;;;50.60;27.42;;;8.60;99.90;;;;;;5093725;28;20089;-82
2024/03/15 03:05:46;;;;;;;50.65;28.58;;;8.60;99.90;;;;;;5093257;28;20067;-83
2024/03/15 03:08:12;;;;;;;51.70;31.48;;;8.60;99.90;;;;;;5093419;28;20502;-84
2024/03/15 03:10:38;;;;;;;52.55;34.03;;;8.40;99.90;;;;;;5094805;28;20095;-83
2024/03/15 03:13:04;;;;;;;53.05;31.70;;;8.40;99.90;;;;;;5093662;28;20947;-83
2024/03/15 03:15:29;;;;;;;57.25;32.10;;;8.40;99.90;;;;;;5092483;28;21309;-83
2024/03/15 03:17:56;;;;;;;52.83;30.48;;;8.40;99.90;;;;;;5093729;28;20082;-83
2024/03/15 03:20:23;;;;;;;49.97;30.17;;;8.50;99.90;;;;;;5093033;28;20059;-83
2024/03/15 03:22:50;;;;;;;52.25;30.55;;;8.40;99.90;;;;;;5093426;28;20046;-83
2024/03/15 03:25:16;;;;;;;43.25;26.25;;;8.40;99.90;;;;;;5093042;28;20389;-83
2024/03/15 03:27:41;;;;;;;61.78;37.80;;;8.40;99.90;;;;;;5092159;28;20020;-83
2024/03/15 03:30:09;;;;;;;55.08;30.33;;;8.40;99.90;;;;;;5092428;28;20119;-84
2024/03/15 03:32:37;;;;;;;52.88;32.50;;;8.40;99.90;;;;;;5095956;28;20101;-82
2024/03/15 03:35:04;;;;;;;54.95;32.45;;;8.20;99.90;;;;;;5096298;28;20034;-83
2024/03/15 03:37:34;;;;;;;44.65;27.92;;;7.90;99.90;;;;;;5099297;28;20032;-82
2024/03/15 03:40:00;;;;;;;49.63;28.58;;;7.90;99.90;;;;;;5098002;28;20613;-82
2024/03/15 03:42:27;;;;;;;45.70;26.40;;;7.90;99.90;;;;;;5097346;28;20469;-83
2024/03/15 03:44:55;;;;;;;47.80;25.60;;;8.00;99.90;;;;;;5096424;28;20039;-83
2024/03/15 03:47:22;;;;;;;47.03;25.65;;;8.10;99.90;;;;;;5098395;28;20041;-82
2024/03/15 03:49:50;;;;;;;45.28;26.58;;;8.30;99.90;;;;;;5097574;28;20048;-82
2024/03/15 03:52:16;;;;;;;57.40;28.05;;;8.20;99.90;;;;;;5096987;28;20080;-81
2024/03/15 03:54:43;;;;;;;50.63;28.73;;;8.30;99.90;;;;;;5096998;28;20084;-81
2024/03/15 03:57:21;;;;;;;44.25;27.27;;;8.40;99.90;;;;;;5096169;27;20036;-81
2024/03/15 03:59:48;;;;;;;44.67;25.77;;;8.40;99.90;;;;;;5095975;28;20032;-81
2024/03/15 04:02:13;;;;;;;49.22;30.60;;;8.10;99.90;;;;;;5096369;28;20067;-82
2024/03/15 04:04:39;;;;;;;52.72;30.33;;;8.10;99.90;;;;;;5093564;28;20154;-83
2024/03/15 04:07:06;;;;;;;54.80;29.23;;;8.00;99.90;;;;;;5094189;28;20043;-82
2024/03/15 04:09:34;;;;;;;44.40;26.60;;;8.00;99.90;;;;;;5092618;28;20052;-81
2024/03/15 04:12:00;;;;;;;48.10;28.23;;;8.10;99.90;;;;;;5094618;28;20651;-84
2024/03/15 04:14:26;;;;;;;48.28;29.75;;;8.10;99.90;;;;;;5093581;28;20035;-86
2024/03/15 04:16:51;;;;;;;49.25;30.98;;;8.10;99.90;;;;;;5091960;28;20158;-81
2024/03/15 04:19:17;;;;;;;51.22;32.42;;;8.10;99.90;;;;;;5092296;28;21699;-81
2024/03/15 04:21:43;;;;;;;55.33;28.00;;;8.00;99.90;;;;;;5090462;28;20123;-82
2024/03/15 04:24:09;;;;;;;45.60;28.20;;;8.00;99.90;;;;;;5090713;28;20130;-82
2024/03/15 04:26:36;;;;;;;45.97;28.98;;;7.90;99.90;;;;;;5093771;28;20031;-81
2024/03/15 04:29:02;;;;;;;43.05;23.77;;;7.80;99.90;;;;;;5093753;28;20039;-81
2024/03/15 04:31:30;;;;;;;48.05;27.42;;;7.80;99.90;;;;;;5093261;28;20482;-81
2024/03/15 04:33:57;;;;;;;42.65;24.95;;;7.80;99.90;;;;;;5093291;28;20088;-81
2024/03/15 04:36:24;;;;;;;48.60;29.00;;;7.80;99.90;;;;;;5092516;28;21239;-81
2024/03/15 04:38:50;;;;;;;44.30;24.65;;;7.60;99.90;;;;;;5093157;28;20032;-81
2024/03/15 04:41:20;;;;;;;45.25;25.88;;;7.60;99.90;;;;;;5094376;28;20047;-83
2024/03/15 04:43:46;;;;;;;51.97;27.60;;;7.60;99.90;;;;;;5091770;28;20024;-81
2024/03/15 04:46:12;;;;;;;45.35;25.38;;;7.90;99.90;;;;;;5091809;28;21382;-81
2024/03/15 04:48:37;;;;;;;44.17;27.00;;;7.90;99.90;;;;;;5094136;28;20540;-81
2024/03/15 04:51:03;;;;;;;42.10;25.95;;;7.80;99.90;;;;;;5091425;28;20040;-81
2024/03/15 04:53:29;;;;;;;42.10;24.77;;;7.90;99.90;;;;;;5095092;28;20122;-80
2024/03/15 04:55:55;;;;;;;47.08;28.23;;;7.90;99.90;;;;;;5092796;28;20032;-80
2024/03/15 04:58:21;;;;;;;46.45;25.90;;;7.90;99.90;;;;;;5092362;28;20648;-81
2024/03/15 05:00:47;;;;;;;42.50;23.38;;;7.80;99.90;;;;;;5091144;28;20047;-81
2024/03/15 05:03:13;;;;;;;43.85;24.48;;;7.80;99.90;;;;;;5092802;28;20035;-81
2024/03/15 05:05:39;;;;;;;44.17;24.20;;;7.70;99.90;;;;;;5091842;28;20371;-80
2024/03/15 05:08:06;;;;;;;37.80;24.83;;;7.60;99.90;;;;;;5094406;28;20074;-81
2024/03/15 05:10:32;;;;;;;39.80;24.08;;;7.60;99.90;;;;;;5090196;28;20027;-81
2024/03/15 05:12:57;;;;;;;38.88;24.42;;;7.60;99.90;;;;;;5090488;28;20042;-81
2024/03/15 05:15:23;;;;;;;40.55;26.75;;;7.40;99.90;;;;;;5094512;28;20027;-81
2024/03/15 05:17:49;;;;;;;41.25;24.35;;;7.30;99.90;;;;;;5091790;28;20128;-81
2024/03/15 05:20:15;;;;;;;41.55;23.25;;;7.30;99.90;;;;;;5091945;28;20031;-81
2024/03/15 05:22:44;;;;;;;35.42;22.00;;;7.40;99.90;;;;;;5093652;28;20069;-82
2024/03/15 05:25:10;;;;;;;36.67;23.27;;;7.40;99.90;;;;;;5092472;27;20728;-81
2024/03/15 05:27:36;;;;;;;40.80;22.60;;;7.50;99.90;;;;;;5091565;28;20118;-83
2024/03/15 05:30:04;;;;;;;35.30;22.45;;;7.50;99.90;;;;;;5093185;28;20087;-83
2024/03/15 05:32:29;;;;;;;34.95;21.10;;;7.50;99.90;;;;;;5091868;28;20638;-84
2024/03/15 05:34:55;;;;;;;38.75;22.75;;;7.40;99.90;;;;;;5091637;28;20118;-84
2024/03/15 05:37:21;;;;;;;35.83;21.30;;;7.60;99.90;;;;;;5090975;28;20120;-85
2024/03/15 05:39:47;;;;;;;35.85;21.98;;;7.50;99.90;;;;;;5088519;28;20405;-83
2024/03/15 05:42:13;;;;;;;40.45;23.88;;;7.50;99.90;;;;;;5089457;28;20085;-84
2024/03/15 05:44:39;;;;;;;35.50;21.60;;;7.50;99.90;;;;;;5092167;28;20377;-84
2024/03/15 05:47:05;;;;;;;34.53;22.58;;;7.50;99.90;;;;;;5090236;28;20142;-83
2024/03/15 05:49:30;;;;;;;45.05;22.13;;;7.40;99.90;;;;;;5089608;28;20501;-84
2024/03/15 05:51:56;;;;;;;38.00;21.30;;;7.30;99.90;;;;;;5090881;28;20776;-83
2024/03/15 05:54:21;;;;;;;40.85;21.90;;;7.30;99.90;;;;;;5090377;28;20032;-86
2024/03/15 05:56:47;;;;;;;31.50;19.88;;;7.50;99.90;;;;;;5089443;28;20031;-84
2024/03/15 05:59:13;;;;;;;29.23;18.45;;;7.70;99.90;;;;;;5090912;28;20103;-83
2024/03/15 06:01:39;;;;;;;35.75;21.58;;;7.60;99.90;;;;;;5090977;28;20580;-83
2024/03/15 06:04:05;;;;;;;35.63;20.42;;;7.60;99.90;;;;;;5092011;28;20046;-83
2024/03/15 06:06:31;;;;;;;37.00;18.92;;;7.60;99.90;;;;;;5093433;28;20036;-83
2024/03/15 06:08:57;;;;;;;32.47;16.67;;;7.50;99.90;;;;;;5091248;28;20122;-83
2024/03/15 06:11:23;;;;;;;31.23;18.52;;;7.60;99.90;;;;;;5090849;28;20044;-85
2024/03/15 06:13:48;;;;;;;27.63;15.88;;;7.70;99.90;;;;;;5091752;28;20051;-84
2024/03/15 06:16:16;;;;;;;26.52;16.33;;;7.70;99.90;;;;;;5091112;28;20554;-84
2024/03/15 06:18:42;;;;;;;29.00;17.00;;;7.80;99.90;;;;;;5094270;28;20031;-84
2024/03/15 06:21:11;;;;;;;34.78;18.27;;;7.90;99.90;;;;;;5094801;28;20046;-84
2024/03/15 06:23:36;;;;;;;28.25;15.18;;;7.90;99.90;;;;;;5091823;28;20032;-84
2024/03/15 06:26:02;;;;;;;25.13;15.52;;;7.90;99.90;;;;;;5091938;28;20031;-83
2024/03/15 06:28:28;;;;;;;29.70;15.25;;;8.00;99.90;;;;;;5091137;28;20680;-82
2024/03/15 06:30:55;;;;;;;22.30;12.65;;;7.90;99.90;;;;;;5090500;28;20031;-82
2024/03/15 06:33:22;;;;;;;24.15;12.93;;;8.00;99.90;;;;;;5092029;28;20035;-83
2024/03/15 06:35:55;;;;;;;21.45;13.13;;;8.00;99.90;;;;;;5090021;28;20511;-83
2024/03/15 06:41:13;;;;;;;23.08;11.95;;;8.10;99.90;;;;;;5089206;28;20058;-83
2024/03/15 06:43:58;;;;;;;18.57;11.00;;;8.20;99.90;;;;;;5091131;28;20051;-83
2024/03/15 06:46:41;;;;;;;23.88;11.77;;;8.20;99.90;;;;;;5091516;28;20118;-82
2024/03/15 06:49:13;;;;;;;24.08;11.77;;;8.10;99.90;;;;;;5090771;28;20042;-83
2024/03/15 06:54:24;;;;;;;17.02;9.70;;;8.10;99.90;;;;;;5091807;28;20659;-83
2024/03/15 06:56:50;;;;;;;17.98;9.48;;;8.10;99.90;;;;;;5090040;28;20732;-83
2024/03/15 06:59:18;;;;;;;17.25;10.48;;;8.10;99.90;;;;;;5095913;28;20942;-79
2024/03/15 07:01:45;;;;;;;18.92;10.90;;;8.00;99.90;;;;;;5093737;28;20032;-81
2024/03/15 07:04:12;;;;;;;17.55;9.77;;;8.00;99.90;;;;;;5092164;28;20167;-83
2024/03/15 07:06:39;;;;;;;17.70;9.43;;;8.10;99.90;;;;;;5088077;28;20641;-81
2024/03/15 07:09:05;;;;;;;22.15;10.35;;;8.20;99.90;;;;;;5087413;28;20034;-82
2024/03/15 07:11:34;;;;;;;17.30;9.38;;;8.20;99.90;;;;;;5087259;28;20040;-82
2024/03/15 07:14:04;;;;;;;14.40;8.88;;;8.30;99.90;;;;;;5087660;28;20473;-81
2024/03/15 07:16:30;;;;;;;18.77;9.80;;;8.40;99.90;;;;;;5087464;28;20051;-80
2024/03/15 07:18:56;;;;;;;16.08;9.07;;;8.50;99.90;;;;;;5085804;28;20027;-81
2024/03/15 07:21:25;;;;;;;17.55;9.15;;;8.40;99.90;;;;;;5085171;28;20691;-81
2024/03/15 07:23:51;;;;;;;18.60;9.25;;;8.50;99.90;;;;;;5086678;28;20043;-82
2024/03/15 07:26:17;;;;;;;20.58;9.30;;;8.70;99.90;;;;;;5087523;28;20056;-81
2024/03/15 07:28:44;;;;;;;16.77;8.93;;;8.80;99.90;;;;;;5085448;28;20032;-82
2024/03/15 07:31:10;;;;;;;15.98;8.05;;;8.90;99.90;;;;;;5086935;28;20035;-83
2024/03/15 07:33:37;;;;;;;14.70;8.43;;;8.90;99.90;;;;;;5086744;28;20035;-83
2024/03/15 07:36:06;;;;;;;16.73;8.45;;;8.90;99.90;;;;;;5086654;28;20033;-81
2024/03/15 07:38:32;;;;;;;16.17;8.68;;;8.80;99.90;;;;;;5086731;28;20601;-81
2024/03/15 07:40:58;;;;;;;18.77;10.32;;;8.70;99.90;;;;;;5086285;28;20100;-81
2024/03/15 07:43:26;;;;;;;15.20;8.40;;;8.70;99.90;;;;;;5086342;28;20098;-80
2024/03/15 07:45:52;;;;;;;14.88;8.93;;;8.70;99.90;;;;;;5087517;28;20034;-82
2024/03/15 07:48:18;;;;;;;17.55;9.48;;;8.70;99.90;;;;;;5088172;28;20436;-83
2024/03/15 07:50:44;;;;;;;17.95;9.18;;;8.80;99.90;;;;;;5086853;28;20032;-82
2024/03/15 07:53:10;;;;;;;15.45;8.00;;;8.80;99.90;;;;;;5086278;28;20447;-81
2024/03/15 07:55:36;;;;;;;12.20;7.47;;;8.80;99.90;;;;;;5088635;28;20035;-81
2024/03/15 07:58:03;;;;;;;15.98;8.05;;;8.90;99.90;;;;;;5087975;28;20470;-81
2024/03/15 08:00:29;;;;;;;13.82;7.28;;;9.00;99.90;;;;;;5088197;28;20107;-84
2024/03/15 08:02:58;;;;;;;13.23;6.82;;;9.00;99.90;;;;;;5084521;28;20038;-81
2024/03/15 08:05:27;;;;;;;12.30;6.68;;;9.00;99.90;;;;;;5079079;28;20139;-81
2024/03/15 08:07:52;;;;;;;10.63;6.35;;;9.00;99.90;;;;;;5085980;28;20047;-82
2024/03/15 08:10:20;;;;;;;13.07;6.63;;;9.10;99.90;;;;;;5087330;28;20036;-81
2024/03/15 08:12:46;;;;;;;14.23;6.55;;;9.20;99.90;;;;;;5086210;28;20032;-81
2024/03/15 08:15:13;;;;;;;13.43;6.50;;;9.30;99.90;;;;;;5085923;28;20034;-81
2024/03/15 08:17:40;;;;;;;11.63;6.25;;;9.30;99.90;;;;;;5086056;28;20389;-82
2024/03/15 08:20:08;;;;;;;13.70;6.53;;;9.30;99.90;;;;;;5090805;27;20051;-81
2024/03/15 08:22:38;;;;;;;13.18;7.18;;;9.30;99.90;;;;;;5092139;28;20047;-80
2024/03/15 08:25:06;;;;;;;12.90;6.25;;;9.30;99.90;;;;;;5090194;28;20039;-80
2024/03/15 08:27:32;;;;;;;10.18;5.68;;;9.50;99.90;;;;;;5090615;28;20035;-81
2024/03/15 08:30:00;;;;;;;12.73;6.65;;;9.50;99.90;;;;;;5090868;28;20188;-81
2024/03/15 08:32:29;;;;;;;11.85;6.90;;;9.50;99.90;;;;;;5090871;28;20035;-81
2024/03/15 08:34:57;;;;;;;12.30;6.70;;;9.60;99.90;;;;;;5090254;28;20610;-80
2024/03/15 08:37:24;;;;;;;14.70;6.55;;;9.70;99.90;;;;;;5090133;28;20028;-81
2024/03/15 08:39:50;;;;;;;9.10;5.45;;;9.90;99.90;;;;;;5090986;28;20099;-80
2024/03/15 08:42:16;;;;;;;9.77;5.47;;;9.90;99.90;;;;;;5089063;28;20652;-80
2024/03/15 08:44:42;;;;;;;11.73;5.78;;;9.90;99.90;;;;;;5087936;28;20035;-81
2024/03/15 08:47:08;;;;;;;10.65;6.00;;;9.90;99.90;;;;;;5090680;28;20032;-80
2024/03/15 08:49:35;;;;;;;10.63;6.07;;;9.90;99.90;;;;;;5089288;28;20043;-80
2024/03/15 08:52:01;;;;;;;13.15;6.13;;;9.90;99.90;;;;;;5089717;28;20046;-82
2024/03/15 08:54:27;;;;;;;11.07;6.35;;;10.00;99.90;;;;;;5090781;28;20023;-84
2024/03/15 08:56:53;;;;;;;10.25;6.43;;;10.10;99.90;;;;;;5089505;28;20043;-83
2024/03/15 08:59:18;;;;;;;9.52;6.05;;;10.10;99.90;;;;;;5088947;28;20626;-83
2024/03/15 09:01:44;;;;;;;10.48;5.65;;;10.20;99.90;;;;;;5089127;28;20425;-83
2024/03/15 09:04:10;;;;;;;12.57;6.45;;;10.40;99.90;;;;;;5088931;28;20101;-84
2024/03/15 09:06:36;;;;;;;9.50;5.70;;;10.50;99.90;;;;;;5088909;28;20044;-83
2024/03/15 09:09:11;;;;;;;10.57;5.78;;;10.50;99.90;;;;;;5090612;28;20051;-83
2024/03/15 09:11:37;;;;;;;10.00;5.88;;;10.60;99.90;;;;;;5090603;28;20243;-84
2024/03/15 09:14:03;;;;;;;10.65;5.53;;;10.70;99.90;;;;;;5089339;28;20039;-80
2024/03/15 09:16:30;;;;;;;8.85;5.30;;;10.70;99.90;;;;;;5089197;28;20298;-80
2024/03/15 09:18:59;;;;;;;9.15;4.53;;;10.70;99.90;;;;;;5090079;28;20039;-80
2024/03/15 09:21:26;;;;;;;11.98;5.50;;;10.80;99.90;;;;;;5089343;28;20044;-81
2024/03/15 09:23:52;;;;;;;10.05;5.90;;;10.90;99.90;;;;;;5089145;28;20130;-83
2024/03/15 09:26:20;;;;;;;13.00;5.50;;;10.90;99.90;;;;;;5089320;28;20046;-82
2024/03/15 09:28:47;;;;;;;8.95;4.93;;;11.00;99.90;;;;;;5088584;28;20040;-80
2024/03/15 09:31:14;;;;;;;12.52;6.15;;;11.00;99.90;;;;;;5088478;28;20115;-81
2024/03/15 09:33:44;;;;;;;10.27;6.25;;;11.10;99.90;;;;;;5091245;27;20100;-80
2024/03/15 09:36:21;;;;;;;8.90;4.60;;;11.20;99.90;;;;;;5089755;28;20067;-83
2024/03/15 09:38:46;;;;;;;9.80;5.32;;;11.50;99.90;;;;;;5088024;28;20114;-82
2024/03/15 09:41:16;;;;;;;15.55;6.28;;;11.60;99.90;;;;;;5087122;28;20092;-83
2024/03/15 09:43:45;;;;;;;12.05;5.82;;;11.80;99.90;;;;;;5089105;28;20031;-83
2024/03/15 09:46:17;;;;;;;10.15;4.95;;;11.90;99.90;;;;;;5088115;28;20485;-83
2024/03/15 09:48:47;;;;;;;11.43;5.00;;;11.90;99.90;;;;;;5087771;28;20493;-84
2024/03/15 09:51:16;;;;;;;9.95;5.53;;;12.00;99.90;;;;;;5087369;27;20594;-83
2024/03/15 09:53:42;;;;;;;10.18;5.80;;;12.10;99.90;;;;;;5088277;28;21636;-83
2024/03/15 09:56:17;;;;;;;11.88;5.88;;;12.10;99.90;;;;;;5087407;28;21370;-82
2024/03/15 09:58:49;;;;;;;11.23;5.90;;;12.20;99.90;;;;;;5086364;28;20031;-83
2024/03/15 10:01:15;;;;;;;11.45;5.70;;;12.20;99.90;;;;;;5087570;28;20138;-83
2024/03/15 10:03:47;;;;;;;12.57;5.47;;;12.20;99.90;;;;;;5088766;28;20172;-86
2024/03/15 10:06:15;;;;;;;11.18;6.63;;;12.30;99.90;;;;;;5088323;28;20389;-85
2024/03/15 10:08:41;;;;;;;9.45;5.30;;;12.20;99.90;;;;;;5088703;28;20565;-85
2024/03/15 10:11:07;;;;;;;10.98;5.93;;;12.40;99.90;;;;;;5090148;28;20035;-83
2024/03/15 10:13:33;;;;;;;13.43;6.22;;;12.40;99.90;;;;;;5086552;28;20031;-84
2024/03/15 10:16:04;;;;;;;10.10;5.40;;;12.40;99.90;;;;;;5086566;28;20041;-84
2024/03/15 10:18:34;;;;;;;13.50;5.05;;;12.50;99.90;;;;;;5088777;28;20048;-84
2024/03/15 10:21:00;;;;;;;10.38;5.63;;;12.80;99.90;;;;;;5087313;28;20047;-84
2024/03/15 10:23:25;;;;;;;11.27;5.53;;;12.90;99.90;;;;;;5088863;28;20392;-85
2024/03/15 10:25:52;;;;;;;11.35;5.45;;;13.00;99.90;;;;;;5089631;28;20112;-84
2024/03/15 10:28:20;;;;;;;11.68;4.60;;;13.20;99.90;;;;;;5087422;28;20084;-82
2024/03/15 10:30:47;;;;;;;12.15;6.07;;;13.30;99.90;;;;;;5088942;28;20555;-81
2024/03/15 10:33:13;;;;;;;9.65;4.70;;;13.30;99.90;;;;;;5088494;28;20033;-80
2024/03/15 10:35:49;;;;;;;10.32;5.75;;;13.40;99.90;;;;;;5090665;28;20054;-81
2024/03/15 10:38:15;;;;;;;12.90;6.03;;;13.40;99.90;;;;;;5092917;28;20031;-85
2024/03/15 10:40:41;;;;;;;9.20;4.78;;;13.60;99.90;;;;;;5087583;28;20039;-83
2024/03/15 10:43:13;;;;;;;9.57;5.18;;;13.70;99.90;;;;;;5087527;28;20039;-83
2024/03/15 10:45:43;;;;;;;9.80;5.25;;;13.70;99.90;;;;;;5089207;28;20115;-83
2024/03/15 10:48:10;;;;;;;13.93;5.53;;;13.60;99.90;;;;;;5087818;28;20112;-81
2024/03/15 10:50:37;;;;;;;9.60;4.78;;;13.60;99.90;;;;;;5087748;28;20066;-81
2024/03/15 10:53:09;;;;;;;8.30;4.05;;;13.80;99.90;;;;;;5092816;28;20047;-80
2024/03/15 10:55:34;;;;;;;9.18;4.57;;;13.90;99.90;;;;;;5088523;28;20047;-84
2024/03/15 10:58:05;;;;;;;12.45;5.53;;;13.90;99.90;;;;;;5088871;28;20683;-84
2024/03/15 11:00:32;;;;;;;9.75;4.43;;;13.90;99.90;;;;;;5091088;28;20028;-83
2024/03/15 11:03:18;;;;;;;16.15;4.88;;;13.90;99.90;;;;;;5075218;28;20111;-83
2024/03/15 11:05:47;;;;;;;9.88;3.75;;;14.00;99.70;;;;;;5089478;28;21352;-85
2024/03/15 11:08:14;;;;;;;10.00;4.65;;;14.00;99.60;;;;;;5089096;28;20061;-85
2024/03/15 11:10:52;;;;;;;9.07;4.88;;;13.90;98.80;;;;;;5088327;28;20038;-83
2024/03/15 11:13:20;;;;;;;10.98;5.07;;;13.90;98.60;;;;;;5089682;28;20928;-83
2024/03/15 11:15:46;;;;;;;11.20;5.35;;;14.10;98.90;;;;;;5086886;28;20481;-82
2024/03/15 11:18:15;;;;;;;9.82;5.30;;;14.30;99.60;;;;;;5086408;28;20122;-81
2024/03/15 11:20:53;;;;;;;10.48;5.32;;;14.20;98.70;;;;;;5088892;28;20100;-80
2024/03/15 11:23:21;;;;;;;9.07;4.15;;;14.40;99.90;;;;;;5087337;28;20032;-81
2024/03/15 11:25:57;;;;;;;9.15;4.70;;;14.40;98.60;;;;;;5085844;28;20038;-81
2024/03/15 11:28:24;;;;;;;8.63;4.85;;;14.40;98.50;;;;;;5086768;28;20043;-82
2024/03/15 11:30:50;;;;;;;12.52;4.88;;;14.40;98.30;;;;;;5088437;28;20052;-82
2024/03/15 11:33:16;;;;;;;9.20;5.57;;;14.40;98.60;;;;;;5086871;28;20036;-81
2024/03/15 11:35:43;;;;;;;8.98;4.68;;;14.50;98.90;;;;;;5086691;28;20682;-80
2024/03/15 11:38:13;;;;;;;10.75;5.53;;;14.70;99.00;;;;;;5087087;28;20020;-80
2024/03/15 11:40:40;;;;;;;10.57;4.47;;;14.80;98.70;;;;;;5088796;28;20064;-80
2024/03/15 11:43:07;;;;;;;15.98;5.15;;;15.00;98.80;;;;;;5087561;28;20108;-81
2024/03/15 11:45:34;;;;;;;11.55;6.35;;;15.00;99.00;;;;;;5084810;28;20035;-81
2024/03/15 11:47:59;;;;;;;12.75;4.65;;;14.90;98.50;;;;;;5087205;28;20044;-80
2024/03/15 11:50:25;;;;;;;9.90;5.85;;;14.90;98.50;;;;;;5086089;28;20104;-80
2024/03/15 11:53:00;;;;;;;10.90;5.20;;;15.00;99.10;;;;;;5086760;28;20128;-82
2024/03/15 11:55:26;;;;;;;9.02;4.18;;;15.10;99.00;;;;;;5091410;28;20036;-81
2024/03/15 11:57:52;;;;;;;7.65;4.35;;;15.10;98.80;;;;;;5091427;28;20043;-80
2024/03/15 12:00:21;;;;;;;10.43;5.97;;;15.00;98.50;;;;;;5089777;28;20154;-80
2024/03/15 12:02:50;;;;;;;9.13;4.82;;;14.90;98.20;;;;;;5090299;28;20047;-83
2024/03/15 12:05:16;;;;;;;10.32;5.32;;;15.10;98.80;;;;;;5091825;28;20056;-80
2024/03/15 12:07:45;;;;;;;8.57;4.68;;;15.10;98.30;;;;;;5089922;28;20032;-80
2024/03/15 12:10:14;;;;;;;9.65;4.45;;;15.20;98.00;;;;;;5090820;27;20032;-83
2024/03/15 12:12:40;;;;;;;10.30;4.72;;;15.20;98.10;;;;;;5091123;27;20370;-80
2024/03/15 12:15:29;;;;;;;9.10;5.50;;;15.20;98.10;;;;;;5092313;28;20059;-82
2024/03/15 12:18:01;;;;;;;10.70;6.15;;;15.40;98.30;;;;;;5091508;28;20854;-83
2024/03/15 12:20:29;;;;;;;11.13;5.85;;;15.40;98.00;;;;;;5090977;28;20047;-82
2024/03/15 12:22:55;;;;;;;12.73;7.07;;;15.40;97.70;;;;;;5094244;28;20482;-85
2024/03/15 12:25:22;;;;;;;12.07;6.43;;;15.40;97.30;;;;;;5092236;28;20039;-83
2024/03/15 12:27:47;;;;;;;12.27;6.82;;;15.50;97.80;;;;;;5093276;28;20592;-79
2024/03/15 12:30:14;;;;;;;14.57;8.27;;;15.70;97.50;;;;;;5093525;28;20130;-79
2024/03/15 12:32:40;;;;;;;16.98;7.75;;;15.70;97.50;;;;;;5088935;27;20038;-83
2024/03/15 12:35:08;;;;;;;16.88;9.38;;;15.80;98.10;;;;;;5088292;28;20534;-80
2024/03/15 12:37:34;;;;;;;20.65;10.50;;;15.90;97.90;;;;;;5090594;28;20106;-79
2024/03/15 12:40:00;;;;;;;21.45;11.73;;;15.80;97.60;;;;;;5088606;28;20730;-81
2024/03/15 12:42:27;;;;;;;15.63;9.30;;;15.90;97.40;;;;;;5089400;28;20051;-80